createdAt,value
2018-05-12T00:01:51.329Z,13.60
2018-05-12T00:04:18.941Z,13.60
2018-05-12T00:06:46.503Z,13.50
2018-05-12T00:09:14.118Z,13.60
2018-05-12T00:11:41.768Z,13.60
2018-05-12T00:14:09.358Z,13.60
2018-05-12T00:16:37.691Z,13.50
2018-05-12T00:19:05.286Z,13.50
2018-05-12T00:21:32.876Z,13.40
2018-05-12T00:24:01.211Z,13.40
2018-05-12T00:26:28.836Z,13.40
2018-05-12T00:28:56.423Z,13.40
2018-05-12T00:31:24.015Z,13.40
2018-05-12T00:33:51.609Z,13.30
2018-05-12T00:36:19.989Z,13.40
2018-05-12T00:38:47.606Z,13.30
2018-05-12T00:41:15.179Z,13.30
2018-05-12T00:43:42.800Z,13.30
2018-05-12T00:46:10.390Z,13.20
2018-05-12T00:48:38.019Z,13.20
2018-05-12T00:51:05.588Z,13.20
2018-05-12T00:53:33.179Z,13.20
2018-05-12T00:56:00.746Z,13.20
2018-05-12T00:58:29.122Z,13.20
2018-05-12T01:00:56.738Z,13.20
2018-05-12T01:03:24.297Z,13.20
2018-05-12T01:05:51.910Z,13.20
2018-05-12T01:08:20.239Z,13.20
2018-05-12T01:10:47.821Z,13.10
2018-05-12T01:13:15.440Z,13.20
2018-05-12T01:15:43.034Z,13.20
2018-05-12T01:18:10.622Z,13.10
2018-05-12T01:20:38.214Z,13.10
2018-05-12T01:23:05.774Z,13.10
2018-05-12T01:25:33.343Z,13.10
2018-05-12T01:28:00.935Z,13.10
2018-05-12T01:30:28.554Z,13.10
2018-05-12T01:32:56.882Z,13.10
2018-05-12T01:35:24.470Z,13.00
2018-05-12T01:37:52.063Z,13.10
2018-05-12T01:40:19.623Z,13.00
2018-05-12T01:42:47.271Z,13.00
2018-05-12T01:45:15.622Z,13.00
2018-05-12T01:47:43.215Z,12.90
2018-05-12T01:50:11.550Z,12.90
2018-05-12T01:52:39.134Z,12.90
2018-05-12T01:55:06.703Z,12.90
2018-05-12T01:57:35.112Z,12.80
2018-05-12T02:00:02.718Z,12.80
2018-05-12T02:02:30.283Z,12.80
2018-05-12T02:04:57.870Z,12.80
2018-05-12T02:07:26.234Z,12.80
2018-05-12T02:09:53.827Z,12.70
2018-05-12T02:12:21.435Z,12.80
2018-05-12T02:14:48.999Z,12.80
2018-05-12T02:17:16.614Z,12.70
2018-05-12T02:19:44.209Z,12.70
2018-05-12T02:22:11.802Z,12.70
2018-05-12T02:24:39.419Z,12.60
2018-05-12T02:27:06.978Z,12.60
2018-05-12T02:29:34.590Z,12.60
2018-05-12T02:32:02.942Z,12.60
2018-05-12T02:34:30.535Z,12.60
2018-05-12T02:36:58.935Z,12.60
2018-05-12T02:39:26.507Z,12.60
2018-05-12T02:41:54.116Z,12.60
2018-05-12T02:44:21.705Z,12.60
2018-05-12T02:46:50.058Z,12.60
2018-05-12T02:49:17.642Z,12.50
2018-05-12T02:51:46.008Z,12.60
2018-05-12T02:54:13.583Z,12.60
2018-05-12T02:56:41.951Z,12.60
2018-05-12T02:59:10.337Z,12.60
2018-05-12T03:01:37.986Z,12.50
2018-05-12T03:04:05.873Z,12.60
2018-05-12T03:06:34.207Z,12.60
2018-05-12T03:09:01.842Z,12.50
2018-05-12T03:11:29.408Z,12.50
2018-05-12T03:13:57.023Z,12.50
2018-05-12T03:16:25.357Z,12.50
2018-05-12T03:18:52.950Z,12.50
2018-05-12T03:21:20.546Z,12.50
2018-05-12T03:23:48.158Z,12.50
2018-05-12T03:26:15.746Z,12.40
2018-05-12T03:28:44.109Z,12.40
2018-05-12T03:31:11.734Z,12.40
2018-05-12T03:33:39.326Z,12.40
2018-05-12T03:36:06.938Z,12.40
2018-05-12T03:38:34.499Z,12.40
2018-05-12T03:41:02.082Z,12.40
2018-05-12T03:43:29.650Z,12.40
2018-05-12T03:45:57.288Z,12.40
2018-05-12T03:48:24.853Z,12.40
2018-05-12T03:50:52.419Z,12.30
2018-05-12T03:53:20.035Z,12.30
2018-05-12T03:55:48.364Z,12.30
2018-05-12T03:58:15.954Z,12.30
2018-05-12T04:00:43.542Z,12.30
2018-05-12T04:03:11.899Z,12.30
2018-05-12T04:05:51.410Z,12.20
2018-05-12T04:08:30.940Z,12.30
2018-05-12T04:11:10.339Z,12.30
2018-05-12T04:13:38.693Z,12.30
2018-05-12T04:16:07.124Z,12.30
2018-05-12T04:18:34.743Z,12.30
2018-05-12T04:21:02.345Z,12.30
2018-05-12T04:23:29.979Z,12.30
2018-05-12T04:25:58.346Z,12.40
2018-05-12T04:28:25.938Z,12.30
2018-05-12T04:30:53.559Z,12.30
2018-05-12T04:33:21.191Z,12.30
2018-05-12T04:35:48.785Z,12.40
2018-05-12T04:38:16.381Z,12.40
2018-05-12T04:40:44.757Z,12.40
2018-05-12T04:43:13.194Z,12.40
2018-05-12T04:45:40.766Z,12.40
2018-05-12T04:48:09.179Z,12.50
2018-05-12T04:50:36.785Z,12.40
2018-05-12T04:53:04.397Z,12.50
2018-05-12T04:55:32.751Z,12.50
2018-05-12T04:58:00.338Z,12.50
2018-05-12T05:00:28.714Z,12.50
2018-05-12T05:02:57.050Z,12.50
2018-05-12T05:05:24.669Z,12.50
2018-05-12T05:07:52.229Z,12.60
2018-05-12T05:10:19.823Z,12.60
2018-05-12T05:12:47.438Z,12.60
2018-05-12T05:15:15.847Z,12.60
2018-05-12T05:17:44.206Z,12.60
2018-05-12T05:20:12.559Z,12.60
2018-05-12T05:22:41.829Z,12.50
2018-05-12T05:25:09.450Z,12.60
2018-05-12T05:27:37.015Z,12.60
2018-05-12T05:30:04.634Z,12.60
2018-05-12T05:32:32.222Z,12.60
2018-05-12T05:35:00.576Z,12.70
2018-05-12T05:37:28.216Z,12.60
2018-05-12T05:39:55.786Z,12.70
2018-05-12T05:42:23.487Z,12.70
2018-05-12T05:44:51.819Z,12.80
2018-05-12T05:47:19.406Z,12.80
2018-05-12T05:49:47.027Z,12.80
2018-05-12T05:52:14.613Z,12.90
2018-05-12T05:54:42.235Z,12.90
2018-05-12T05:57:09.822Z,13.00
2018-05-12T05:59:37.457Z,13.00
2018-05-12T06:02:05.058Z,13.10
2018-05-12T06:04:32.678Z,13.10
2018-05-12T06:07:01.101Z,13.20
2018-05-12T06:09:28.682Z,13.10
2018-05-12T06:11:56.279Z,13.20
2018-05-12T06:14:23.890Z,13.20
2018-05-12T06:16:51.482Z,13.30
2018-05-12T06:19:19.843Z,13.40
2018-05-12T06:21:47.467Z,13.30
2018-05-12T06:24:15.068Z,13.40
2018-05-12T06:26:42.664Z,13.40
2018-05-12T06:29:10.258Z,13.50
2018-05-12T06:31:38.638Z,13.60
2018-05-12T06:34:07.026Z,13.60
2018-05-12T06:36:35.414Z,13.60
2018-05-12T06:39:03.043Z,13.60
2018-05-12T06:41:30.634Z,13.60
2018-05-12T06:43:58.234Z,13.70
2018-05-12T06:46:26.620Z,13.70
2018-05-12T06:48:54.234Z,13.70
2018-05-12T06:51:21.862Z,13.80
2018-05-12T06:53:50.188Z,13.90
2018-05-12T06:56:17.746Z,13.80
2018-05-12T06:58:45.361Z,13.90
2018-05-12T07:01:13.014Z,14.00
2018-05-12T07:03:40.583Z,13.90
2018-05-12T07:06:08.175Z,14.00
2018-05-12T07:08:35.770Z,14.00
2018-05-12T07:11:04.163Z,14.10
2018-05-12T07:13:32.551Z,14.20
2018-05-12T07:16:00.142Z,14.10
2018-05-12T07:18:27.746Z,14.10
2018-05-12T07:20:56.110Z,14.20
2018-05-12T07:23:23.702Z,14.20
2018-05-12T07:25:52.050Z,14.30
2018-05-12T07:28:19.611Z,14.20
2018-05-12T07:30:47.225Z,14.30
2018-05-12T07:33:14.795Z,14.40
2018-05-12T07:35:42.441Z,14.40
2018-05-12T07:38:10.036Z,14.40
2018-05-12T07:40:37.662Z,14.40
2018-05-12T07:43:05.239Z,14.40
2018-05-12T07:45:32.965Z,14.40
2018-05-12T07:48:00.571Z,14.40
2018-05-12T07:50:28.171Z,14.50
2018-05-12T07:52:56.567Z,14.50
2018-05-12T07:55:24.934Z,14.60
2018-05-12T07:57:53.266Z,14.60
2018-05-12T08:00:20.870Z,14.60
2018-05-12T08:02:49.195Z,14.60
2018-05-12T08:05:16.805Z,14.60
2018-05-12T08:07:44.399Z,14.60
2018-05-12T08:10:12.019Z,14.60
2018-05-12T08:12:39.638Z,14.70
2018-05-12T08:15:07.207Z,14.70
2018-05-12T08:17:34.805Z,14.70
2018-05-12T08:20:02.367Z,14.70
2018-05-12T08:22:29.953Z,14.80
2018-05-12T08:24:58.311Z,14.80
2018-05-12T08:27:25.935Z,14.70
2018-05-12T08:29:53.523Z,14.80
2018-05-12T08:32:21.103Z,14.80
2018-05-12T08:34:49.504Z,14.80
2018-05-12T08:37:17.083Z,14.80
2018-05-12T08:39:44.682Z,14.80
2018-05-12T08:42:12.283Z,14.80
2018-05-12T08:44:39.910Z,14.80
2018-05-12T08:47:07.497Z,14.80
2018-05-12T08:49:35.906Z,14.80
2018-05-12T08:52:03.494Z,14.80
2018-05-12T08:54:31.895Z,14.90
2018-05-12T08:56:59.485Z,14.90
2018-05-12T08:59:27.054Z,14.90
2018-05-12T09:01:54.713Z,14.90
2018-05-12T09:04:22.283Z,15.00
2018-05-12T09:06:49.853Z,14.90
2018-05-12T09:09:18.239Z,15.00
2018-05-12T09:11:45.862Z,14.90
2018-05-12T09:14:14.230Z,15.00
2018-05-12T09:16:42.794Z,14.90
2018-05-12T09:19:10.449Z,15.00
2018-05-12T09:21:38.409Z,15.00
2018-05-12T09:24:06.011Z,15.00
2018-05-12T09:26:33.623Z,15.00
2018-05-12T09:29:01.269Z,15.10
2018-05-12T09:31:29.630Z,15.10
2018-05-12T09:33:57.354Z,15.00
2018-05-12T09:36:24.962Z,15.10
2018-05-12T09:38:53.286Z,15.10
2018-05-12T09:41:20.879Z,15.00
2018-05-12T09:43:49.270Z,15.10
2018-05-12T09:46:16.878Z,15.00
2018-05-12T09:48:44.474Z,15.10
2018-05-12T09:51:12.894Z,15.10
2018-05-12T09:53:40.616Z,15.00
2018-05-12T09:56:08.960Z,15.10
2018-05-12T09:58:36.690Z,15.10
2018-05-12T10:01:04.298Z,15.10
2018-05-12T10:03:31.994Z,15.10
2018-05-12T10:05:59.528Z,15.20
2018-05-12T10:08:27.886Z,15.20
2018-05-12T10:10:55.477Z,15.20
2018-05-12T10:13:23.045Z,15.20
2018-05-12T10:15:50.662Z,15.20
2018-05-12T10:18:18.225Z,15.20
2018-05-12T10:20:45.792Z,15.20
2018-05-12T10:23:13.410Z,15.20
2018-05-12T10:25:41.014Z,15.20
2018-05-12T10:28:08.615Z,15.20
2018-05-12T10:30:36.206Z,15.20
2018-05-12T10:33:04.616Z,15.30
2018-05-12T10:35:32.182Z,15.20
2018-05-12T10:37:59.773Z,15.30
2018-05-12T10:40:27.364Z,15.30
2018-05-12T10:42:54.949Z,15.30
2018-05-12T10:45:23.314Z,15.40
2018-05-12T10:47:51.715Z,15.40
2018-05-12T10:50:19.270Z,15.40
2018-05-12T10:52:46.840Z,15.40
2018-05-12T10:55:14.434Z,15.40
2018-05-12T10:57:42.763Z,15.40
2018-05-12T11:00:10.350Z,15.40
2018-05-12T11:02:37.943Z,15.40
2018-05-12T11:05:07.207Z,15.50
2018-05-12T11:07:34.794Z,15.60
2018-05-12T11:10:03.171Z,15.60
2018-05-12T11:12:31.594Z,15.60
2018-05-12T11:14:59.155Z,15.60
2018-05-12T11:17:26.738Z,15.60
2018-05-12T11:19:55.868Z,15.60
2018-05-12T11:22:23.507Z,15.50
2018-05-12T11:24:51.863Z,15.60
2018-05-12T11:27:19.462Z,15.50
2018-05-12T11:29:47.074Z,15.50
2018-05-12T11:32:14.702Z,15.60
2018-05-12T11:34:42.332Z,15.60
2018-05-12T11:37:09.948Z,15.50
2018-05-12T11:39:37.548Z,15.60
2018-05-12T11:42:05.929Z,15.60
2018-05-12T11:44:33.619Z,15.50
2018-05-12T11:47:01.102Z,15.60
2018-05-12T11:49:28.692Z,15.60
2018-05-12T11:51:57.050Z,15.60
2018-05-12T11:54:24.659Z,15.60
2018-05-12T11:56:52.223Z,15.60
2018-05-12T11:59:19.833Z,15.70
2018-05-12T12:01:47.395Z,15.70
2018-05-12T12:04:14.983Z,15.70
2018-05-12T12:06:42.571Z,15.70
2018-05-12T12:09:10.162Z,15.70
2018-05-12T12:11:37.774Z,15.80
2018-05-12T12:14:05.410Z,15.80
2018-05-12T12:16:33.827Z,15.70
2018-05-12T12:19:01.389Z,15.70
2018-05-12T12:21:29.022Z,15.70
2018-05-12T12:23:57.372Z,15.70
2018-05-12T12:26:24.930Z,15.70
2018-05-12T12:28:52.547Z,15.80
2018-05-12T12:31:20.129Z,15.80
2018-05-12T12:33:47.752Z,15.80
2018-05-12T12:36:15.318Z,15.90
2018-05-12T12:38:42.937Z,15.90
2018-05-12T12:41:11.324Z,15.90
2018-05-12T12:43:38.935Z,15.90
2018-05-12T12:46:06.531Z,15.80
2018-05-12T12:48:34.887Z,15.90
2018-05-12T12:51:03.234Z,16.00
2018-05-12T12:53:30.848Z,15.90
2018-05-12T12:55:58.430Z,16.00
2018-05-12T12:58:26.090Z,16.00
2018-05-12T13:00:54.394Z,16.00
2018-05-12T13:03:21.955Z,16.00
2018-05-12T13:05:49.567Z,16.00
2018-05-12T13:08:17.139Z,16.10
2018-05-12T13:10:44.740Z,16.10
2018-05-12T13:13:12.303Z,16.20
2018-05-12T13:15:39.923Z,16.20
2018-05-12T13:18:07.483Z,16.20
2018-05-12T13:20:35.040Z,16.20
2018-05-12T13:23:02.671Z,16.20
2018-05-12T13:25:30.995Z,16.10
2018-05-12T13:27:58.582Z,16.10
2018-05-12T13:30:26.206Z,16.20
2018-05-12T13:32:53.761Z,16.10
2018-05-12T13:35:21.314Z,16.10
2018-05-12T13:37:48.947Z,16.10
2018-05-12T13:40:17.279Z,16.00
2018-05-12T13:42:44.938Z,16.00
2018-05-12T13:45:12.497Z,16.00
2018-05-12T13:47:40.051Z,16.00
2018-05-12T13:50:07.674Z,16.00
2018-05-12T13:52:36.022Z,16.00
2018-05-12T13:55:03.670Z,15.90
2018-05-12T13:57:31.231Z,16.00
2018-05-12T13:59:58.814Z,16.00
2018-05-12T14:02:26.466Z,16.00
2018-05-12T14:04:54.062Z,16.20
2018-05-12T14:07:22.451Z,16.20
2018-05-12T14:09:50.807Z,16.20
2018-05-12T14:12:18.403Z,16.20
2018-05-12T14:14:45.995Z,16.20
2018-05-12T14:17:13.615Z,16.20
2018-05-12T14:19:41.962Z,16.20
2018-05-12T14:22:09.552Z,16.10
2018-05-12T14:24:37.922Z,16.10
2018-05-12T14:27:05.478Z,16.10
2018-05-12T14:29:33.910Z,16.10
2018-05-12T14:32:01.493Z,16.10
2018-05-12T14:34:29.055Z,16.10
2018-05-12T14:36:56.698Z,16.10
2018-05-12T14:39:24.259Z,16.10
2018-05-12T14:41:51.838Z,16.00
2018-05-12T14:44:19.426Z,16.00
2018-05-12T14:46:47.810Z,16.10
2018-05-12T14:49:16.222Z,16.00
2018-05-12T14:51:43.783Z,16.00
2018-05-12T14:54:11.366Z,16.00
2018-05-12T14:56:39.011Z,16.00
2018-05-12T14:59:06.603Z,16.00
2018-05-12T15:01:34.160Z,16.00
2018-05-12T15:04:01.756Z,16.00
2018-05-12T15:06:30.162Z,16.00
2018-05-12T15:08:57.766Z,15.90
2018-05-12T15:11:25.325Z,15.90
2018-05-12T15:13:52.943Z,16.00
2018-05-12T15:16:20.527Z,16.00
2018-05-12T15:18:48.139Z,16.00
2018-05-12T15:21:16.504Z,16.00
2018-05-12T15:23:44.062Z,15.90
2018-05-12T15:26:11.618Z,16.00
2018-05-12T15:28:39.255Z,16.00
2018-05-12T15:31:06.806Z,16.00
2018-05-12T15:33:34.386Z,15.90
2018-05-12T15:36:02.035Z,16.00
2018-05-12T15:38:29.619Z,16.00
2018-05-12T15:40:57.182Z,15.90
2018-05-12T15:43:24.811Z,15.90
2018-05-12T15:45:52.395Z,15.90
2018-05-12T15:48:19.985Z,16.00
2018-05-12T15:50:48.362Z,16.00
2018-05-12T15:53:16.714Z,16.00
2018-05-12T15:55:44.270Z,16.00
2018-05-12T15:58:11.895Z,16.00
2018-05-12T16:00:39.478Z,16.00
2018-05-12T16:03:07.089Z,16.00
2018-05-12T16:05:35.449Z,16.00
2018-05-12T16:08:03.063Z,15.90
2018-05-12T16:10:30.651Z,16.00
2018-05-12T16:12:58.234Z,16.00
2018-05-12T16:15:25.861Z,16.00
2018-05-12T16:17:53.452Z,16.00
2018-05-12T16:20:21.020Z,16.00
2018-05-12T16:22:49.431Z,16.00
2018-05-12T16:25:16.986Z,16.00
2018-05-12T16:27:44.569Z,16.00
2018-05-12T16:30:12.189Z,16.00
2018-05-12T16:32:40.547Z,16.00
2018-05-12T16:35:08.111Z,16.00
2018-05-12T16:37:35.726Z,16.00
2018-05-12T16:40:03.286Z,16.00
2018-05-12T16:42:30.847Z,16.00
2018-05-12T16:44:58.490Z,16.00
2018-05-12T16:47:26.079Z,16.00
2018-05-12T16:49:53.634Z,16.00
2018-05-12T16:52:21.994Z,16.00
2018-05-12T16:54:49.549Z,16.00
2018-05-12T16:57:17.169Z,16.10
2018-05-12T16:59:44.755Z,16.10
2018-05-12T17:02:12.375Z,16.10
2018-05-12T17:04:39.931Z,16.10
2018-05-12T17:07:08.283Z,16.10
2018-05-12T17:09:35.880Z,16.10
2018-05-12T17:12:03.482Z,16.10
2018-05-12T17:14:31.103Z,16.00
2018-05-12T17:16:58.687Z,16.10
2018-05-12T17:19:26.270Z,16.10
2018-05-12T17:21:54.649Z,16.00
2018-05-12T17:24:23.012Z,16.00
2018-05-12T17:26:50.616Z,16.00
2018-05-12T17:29:18.203Z,16.10
2018-05-12T17:31:45.855Z,16.10
2018-05-12T17:34:13.419Z,16.00
2018-05-12T17:36:41.007Z,16.00
2018-05-12T17:39:08.610Z,16.00
2018-05-12T17:41:36.174Z,16.00
2018-05-12T17:44:03.800Z,16.10
2018-05-12T17:46:31.359Z,16.10
2018-05-12T17:48:58.923Z,16.10
2018-05-12T17:51:26.542Z,16.00
2018-05-12T17:53:54.134Z,16.10
2018-05-12T17:56:21.718Z,16.10
2018-05-12T17:58:50.112Z,16.00
2018-05-12T18:01:17.719Z,16.00
2018-05-12T18:03:45.348Z,16.10
2018-05-12T18:06:12.937Z,16.00
2018-05-12T18:08:40.523Z,16.10
2018-05-12T18:11:08.114Z,16.10
2018-05-12T18:13:36.437Z,16.10
2018-05-12T18:16:04.076Z,16.00
2018-05-12T18:18:31.665Z,16.10
2018-05-12T18:20:59.246Z,16.10
2018-05-12T18:23:26.863Z,16.10
2018-05-12T18:25:54.427Z,16.10
2018-05-12T18:28:21.989Z,16.10
2018-05-12T18:30:49.615Z,16.10
2018-05-12T18:33:17.941Z,16.00
2018-05-12T18:35:45.544Z,16.00
2018-05-12T18:38:13.146Z,16.00
2018-05-12T18:40:40.731Z,16.00
2018-05-12T18:43:08.382Z,16.00
2018-05-12T18:45:35.982Z,16.00
2018-05-12T18:48:03.571Z,16.00
2018-05-12T18:50:31.960Z,16.00
2018-05-12T18:52:59.722Z,15.90
2018-05-12T18:55:27.346Z,16.00
2018-05-12T18:57:54.898Z,16.00
2018-05-12T19:00:22.484Z,16.00
2018-05-12T19:02:50.874Z,16.00
2018-05-12T19:05:19.222Z,16.00
2018-05-12T19:07:46.810Z,15.90
2018-05-12T19:10:15.191Z,16.00
2018-05-12T19:12:42.779Z,15.90
2018-05-12T19:15:10.407Z,15.90
2018-05-12T19:17:37.963Z,16.00
2018-05-12T19:20:05.563Z,16.00
2018-05-12T19:22:33.139Z,16.00
2018-05-12T19:25:00.742Z,16.00
2018-05-12T19:27:28.354Z,16.00
2018-05-12T19:29:55.918Z,16.00
2018-05-12T19:32:23.526Z,16.00
2018-05-12T19:34:51.123Z,16.00
2018-05-12T19:37:18.700Z,16.00
2018-05-12T19:39:46.294Z,16.00
2018-05-12T19:42:13.894Z,16.00
2018-05-12T19:44:41.481Z,15.90
2018-05-12T19:47:09.074Z,15.90
2018-05-12T19:49:36.688Z,16.00
2018-05-12T19:52:04.286Z,16.00
2018-05-12T19:54:31.942Z,16.00
2018-05-12T19:56:59.711Z,15.90
2018-05-12T19:59:27.173Z,16.00
2018-05-12T20:01:54.780Z,16.00
2018-05-12T20:04:22.399Z,15.90
2018-05-12T20:06:49.983Z,16.00
2018-05-12T20:09:18.366Z,16.00
2018-05-12T20:11:46.695Z,15.90
2018-05-12T20:14:14.295Z,15.90
2018-05-12T20:16:41.885Z,15.90
2018-05-12T20:19:09.470Z,15.90
2018-05-12T20:21:37.083Z,15.90
2018-05-12T20:24:04.646Z,15.90
2018-05-12T20:26:32.243Z,15.90
2018-05-12T20:28:59.824Z,15.90
2018-05-12T20:31:27.442Z,15.90
2018-05-12T20:33:55.794Z,15.90
2018-05-12T20:36:23.483Z,15.90
2018-05-12T20:38:51.835Z,15.90
2018-05-12T20:41:19.422Z,15.80
2018-05-12T20:43:47.798Z,15.90
2018-05-12T20:46:15.423Z,15.80
2018-05-12T20:48:43.023Z,15.90
2018-05-12T20:51:10.742Z,15.90
2018-05-12T20:53:38.371Z,15.80
2018-05-12T20:56:05.930Z,15.90
2018-05-12T20:58:33.519Z,15.90
2018-05-12T21:01:01.102Z,15.90
2018-05-12T21:03:29.427Z,15.90
2018-05-12T21:05:56.990Z,15.80
2018-05-12T21:08:24.606Z,15.90
2018-05-12T21:10:52.195Z,15.90
2018-05-12T21:13:19.778Z,15.90
2018-05-12T21:15:48.158Z,15.90
2018-05-12T21:18:16.488Z,15.90
2018-05-12T21:20:44.048Z,15.90
2018-05-12T21:23:11.631Z,15.90
2018-05-12T21:25:39.202Z,15.90
2018-05-12T21:28:06.782Z,15.90
2018-05-12T21:30:34.369Z,15.90
2018-05-12T21:33:01.978Z,15.80
2018-05-12T21:35:29.602Z,15.80
2018-05-12T21:37:57.228Z,15.80
2018-05-12T21:40:24.825Z,15.80
2018-05-12T21:42:52.409Z,15.80
2018-05-12T21:45:20.781Z,15.80
2018-05-12T21:47:48.338Z,15.80
2018-05-12T21:50:15.946Z,15.80
2018-05-12T21:52:44.298Z,15.80
2018-05-12T21:55:11.855Z,15.70
2018-05-12T21:57:39.482Z,15.80
2018-05-12T22:00:07.347Z,15.80
2018-05-12T22:02:34.932Z,15.80
2018-05-12T22:05:02.498Z,15.70
2018-05-12T22:07:30.889Z,15.70
2018-05-12T22:09:58.458Z,15.60
2018-05-12T22:12:26.083Z,15.70
2018-05-12T22:14:53.647Z,15.70
2018-05-12T22:17:21.223Z,15.60
2018-05-12T22:19:48.807Z,15.60
2018-05-12T22:22:17.139Z,15.60
2018-05-12T22:24:44.724Z,15.50
2018-05-12T22:27:12.330Z,15.60
2018-05-12T22:29:40.695Z,15.50
2018-05-12T22:32:08.283Z,15.50
2018-05-12T22:34:35.926Z,15.50
2018-05-12T22:37:03.514Z,15.50
2018-05-12T22:39:31.102Z,15.50
2018-05-12T22:41:58.730Z,15.50
2018-05-12T22:44:26.322Z,15.50
2018-05-12T22:46:53.906Z,15.40
2018-05-12T22:49:21.516Z,15.40
2018-05-12T22:51:49.118Z,15.40
2018-05-12T22:54:16.734Z,15.40
2018-05-12T22:56:44.319Z,15.40
2018-05-12T22:59:11.923Z,15.40
2018-05-12T23:01:39.482Z,15.30
2018-05-12T23:04:07.117Z,15.40
2018-05-12T23:06:34.711Z,15.30
2018-05-12T23:09:02.266Z,15.30
2018-05-12T23:11:29.859Z,15.30
2018-05-12T23:13:57.447Z,15.30
2018-05-12T23:16:25.036Z,15.30
2018-05-12T23:18:52.597Z,15.30
2018-05-12T23:21:20.247Z,15.30
2018-05-12T23:23:47.810Z,15.30
2018-05-12T23:26:15.400Z,15.30
2018-05-12T23:28:43.054Z,15.30
2018-05-12T23:31:10.641Z,15.30
2018-05-12T23:33:39.014Z,15.30
2018-05-12T23:36:07.337Z,15.20
2018-05-12T23:38:34.951Z,15.20
2018-05-12T23:41:03.305Z,15.30
2018-05-12T23:43:30.910Z,15.20
2018-05-12T23:45:58.498Z,15.20
2018-05-12T23:48:26.092Z,15.20
2018-05-12T23:50:53.716Z,15.30
2018-05-12T23:53:21.313Z,15.20
2018-05-12T23:55:48.927Z,15.20
2018-05-12T23:58:16.508Z,15.20
